< Typhoon 196226 1962 Season Typhoon 196228 >
Typhoon 196227 (JEAN)
General InformationTrack Information on Google Maps || Disaster Info.ResourceGoogle EarthGE AnimationAtom FeedGeoJSON
Detalied Best Track (Time Zone = UTC)
Year Month Day Hour Lat. Long. Pressure (hPa) Wind (kt) Class Image Chart
1962 11 4 06 8.3 138.2 1004 0 2 -- Chart
1962 11 4 12 9.4 136.2 1006 0 2 -- Chart
1962 11 4 18 10.0 134.0 1005 0 2 -- Chart
1962 11 5 00 10.6 132.6 1005 0 2 -- Chart
1962 11 5 06 11.2 131.1 1004 0 2 -- Chart
1962 11 5 12 11.6 129.6 1004 0 2 -- Chart
1962 11 5 18 12.0 128.0 1002 0 2 -- Chart
1962 11 6 00 12.5 126.5 1002 0 2 -- Chart
1962 11 6 06 12.5 124.8 1000 0 9 -- Chart
1962 11 6 12 12.6 123.5 1000 0 9 -- Chart
1962 11 6 18 12.5 122.3 1000 0 9 -- Chart
1962 11 7 00 12.5 120.6 995 0 9 -- Chart
1962 11 7 06 13.1 119.2 990 0 9 -- Chart
1962 11 7 12 13.8 117.9 990 0 9 -- Chart
1962 11 7 18 14.3 116.5 990 0 9 -- Chart
1962 11 8 00 14.5 115.6 990 0 9 -- Chart
1962 11 8 06 15.0 114.9 980 0 9 -- Chart
1962 11 8 12 15.4 113.8 980 0 9 -- Chart
1962 11 8 18 15.4 113.5 980 0 9 -- Chart
1962 11 9 00 15.3 113.2 975 0 9 -- Chart
1962 11 9 06 15.4 112.7 975 0 9 -- Chart
1962 11 9 12 15.4 112.4 975 0 9 -- Chart
1962 11 9 18 15.5 111.9 975 0 9 -- Chart
1962 11 10 00 15.4 111.5 975 0 9 -- Chart
1962 11 10 06 15.5 111.0 975 0 9 -- Chart
1962 11 10 12 15.5 110.9 975 0 9 -- Chart
1962 11 10 18 15.6 110.6 980 0 9 -- Chart
1962 11 11 00 15.8 110.5 990 0 9 -- Chart
1962 11 11 06 16.0 110.5 990 0 9 -- Chart
1962 11 11 12 16.2 110.4 990 0 9 -- Chart
1962 11 11 18 16.4 110.4 995 0 9 -- Chart
1962 11 12 00 16.6 110.4 995 0 9 -- Chart
1962 11 12 06 16.8 110.5 995 0 9 -- Chart
1962 11 12 12 17.0 110.6 998 0 9 -- Chart
1962 11 12 18 17.4 110.8 998 0 9 -- Chart
1962 11 13 00 17.6 111.2 1000 0 9 -- Chart
1962 11 13 06 17.9 111.4 1000 0 9 -- Chart
1962 11 13 12 18.4 111.9 1000 0 9 -- Chart
1962 11 13 18 18.6 112.4 1002 0 2 -- Chart
1962 11 14 00 18.5 112.9 1002 0 2 -- Chart
1962 11 14 06 18.0 113.5 1002 0 2 -- Chart
1962 11 14 12 17.5 114.0 1002 0 2 -- Chart
1962 11 14 18 17.0 114.5 1002 0 2 -- Chart
1962 11 15 00 16.0 115.0 1004 0 2 -- Chart
1962 11 15 06 15.5 115.5 1007 0 2 -- Chart
1962 11 15 12 15.1 115.2 1008 0 2 -- Chart
1962 11 15 18 15.1 115.4 1006 0 2 -- Chart
1962 11 16 00 15.0 116.4 1008 0 2 -- Chart
1962 11 16 06 14.0 117.0 1008 0 2 -- Chart
1962 11 16 12 13.4 117.0 1008 0 2 -- Chart
1962 11 16 18 13.0 117.0 1008 0 2 -- Chart
1962 11 17 00 12.7 117.0 1008 0 2 -- Chart
1962 11 17 06 12.2 116.6 1008 0 2 -- Chart
1962 11 17 12 12.0 116.2 1008 0 2 -- Chart
1962 11 17 18 11.6 115.5 1008 0 2 -- Chart
1962 11 18 00 11.5 115.0 1008 0 2 -- Chart
1962 11 18 06 11.5 114.0 1008 0 2 -- Chart
1962 11 18 12 11.0 113.2 1008 0 2 -- Chart
1962 11 18 18 10.0 113.0 1009 0 2 -- Chart
1962 11 19 00 9.5 113.5 1010 0 2 -- Chart
1962 11 19 06 9.0 113.7 1010 0 2 -- Chart
1962 11 19 12 8.5 112.9 1010 0 2 -- Chart
Japan Meteorological Agency Best Track Data | Correction Date : 1989-06-01
< Typhoon 196226 1962 Season Typhoon 196228 >

Help